createdAt,value
2022-08-10T00:00:47.384Z,57.48
2022-08-10T00:01:47.480Z,57.28
2022-08-10T00:02:47.512Z,57.31
2022-08-10T00:03:47.557Z,57.31
2022-08-10T00:04:47.638Z,57.41
2022-08-10T00:05:53.084Z,57.51
2022-08-10T00:06:47.792Z,57.51
2022-08-10T00:07:47.865Z,57.51
2022-08-10T00:08:47.959Z,57.61
2022-08-10T00:09:51.088Z,57.71
2022-08-10T00:10:48.123Z,57.74
2022-08-10T00:11:48.197Z,57.74
2022-08-10T00:12:54.433Z,57.84
2022-08-10T00:13:48.429Z,57.84
2022-08-10T00:14:48.469Z,57.94
2022-08-10T00:15:53.528Z,57.94
2022-08-10T00:16:48.635Z,58.04
2022-08-10T00:17:48.715Z,58.04
2022-08-10T00:18:48.764Z,58.14
2022-08-10T00:20:03.138Z,58.14
2022-08-10T00:20:48.938Z,58.14
2022-08-10T00:21:49.110Z,58.24
2022-08-10T00:22:57.426Z,58.34
2022-08-10T00:23:49.173Z,58.34
2022-08-10T00:24:49.262Z,58.24
2022-08-10T00:25:49.351Z,58.24
2022-08-10T00:28:00.881Z,58.34
2022-08-10T00:28:07.998Z,58.34
2022-08-10T00:28:49.578Z,58.24
2022-08-10T00:29:49.679Z,58.24
2022-08-10T00:30:49.804Z,58.24
2022-08-10T00:31:57.688Z,58.14
2022-08-10T00:32:49.893Z,58.14
2022-08-10T00:33:49.985Z,58.34
2022-08-10T00:34:50.044Z,58.34
2022-08-10T00:35:50.125Z,58.34
2022-08-10T00:36:50.207Z,58.27
2022-08-10T00:37:57.700Z,58.37
2022-08-10T00:38:50.380Z,58.37
2022-08-10T00:39:50.516Z,58.27
2022-08-10T00:40:50.502Z,58.37
2022-08-10T00:42:06.897Z,58.47
2022-08-10T00:42:50.657Z,58.47
2022-08-10T00:43:50.747Z,58.57
2022-08-10T00:44:50.820Z,58.57
2022-08-10T00:45:59.041Z,58.67
2022-08-10T00:46:50.990Z,58.77
2022-08-10T00:47:51.067Z,58.87
2022-08-10T00:49:00.207Z,58.87
2022-08-10T00:49:51.216Z,58.97
2022-08-10T00:50:51.280Z,58.97
2022-08-10T00:51:51.361Z,58.97
2022-08-10T00:52:51.433Z,58.97
2022-08-10T00:53:51.538Z,58.97
2022-08-10T00:54:51.595Z,58.97
2022-08-10T00:57:14.444Z,59.00
2022-08-10T00:57:22.713Z,59.00
2022-08-10T00:57:54.958Z,59.00
2022-08-10T00:58:51.951Z,59.00
2022-08-10T00:59:59.299Z,58.90
2022-08-10T01:00:52.181Z,58.90
2022-08-10T01:02:08.441Z,59.00
2022-08-10T01:02:52.459Z,59.10
2022-08-10T01:04:40.237Z,59.20
2022-08-10T01:05:05.088Z,59.20
2022-08-10T01:05:52.519Z,59.20
2022-08-10T01:06:52.617Z,59.20
2022-08-10T01:07:52.699Z,59.20
2022-08-10T01:08:52.801Z,59.10
2022-08-10T01:09:55.898Z,59.20
2022-08-10T01:10:52.956Z,59.20
2022-08-10T01:12:39.280Z,59.30
2022-08-10T01:12:53.422Z,59.30
2022-08-10T01:13:53.210Z,59.30
2022-08-10T01:14:53.285Z,59.20
2022-08-10T01:15:53.358Z,59.10
2022-08-10T05:30:01.438Z,66.13
2022-08-10T05:30:50.873Z,66.24
2022-08-10T05:31:50.959Z,66.44
2022-08-10T05:32:57.381Z,66.41
2022-08-10T05:33:51.111Z,66.50
2022-08-10T05:34:51.227Z,66.50
2022-08-10T05:35:56.627Z,66.50
2022-08-10T05:36:51.425Z,66.61
2022-08-10T05:38:13.312Z,66.67
2022-08-10T05:38:51.526Z,66.67
2022-08-10T05:39:51.749Z,66.67
2022-08-10T05:40:51.718Z,66.78
2022-08-10T05:41:53.035Z,66.98
2022-08-10T05:42:51.879Z,66.98
2022-08-10T05:43:51.956Z,67.08
2022-08-10T05:44:52.051Z,67.08
2022-08-10T05:46:17.737Z,67.18
2022-08-10T05:46:52.179Z,67.15
2022-08-10T05:48:54.459Z,67.15
2022-08-10T05:49:04.357Z,67.15
2022-08-10T05:49:52.508Z,67.15
2022-08-10T05:50:52.502Z,67.15
2022-08-10T05:51:52.587Z,67.15
2022-08-10T05:52:52.675Z,67.15
2022-08-10T05:54:02.764Z,67.12
2022-08-10T05:54:52.868Z,67.12
2022-08-10T05:55:52.920Z,67.22
2022-08-10T05:56:58.086Z,67.32
2022-08-10T05:57:53.084Z,67.32
2022-08-10T05:58:53.178Z,67.32
2022-08-10T06:00:10.886Z,67.32
2022-08-10T06:00:53.433Z,67.43
2022-08-10T06:02:31.156Z,67.43
2022-08-10T06:02:53.524Z,67.52
2022-08-10T06:03:53.586Z,67.52
2022-08-10T06:04:53.698Z,67.52
2022-08-10T06:05:53.767Z,67.52
2022-08-10T06:06:53.849Z,67.52
2022-08-10T06:07:53.938Z,67.63
2022-08-10T06:08:54.041Z,67.63
2022-08-10T06:09:59.244Z,67.80
2022-08-10T06:12:23.921Z,67.80
2022-08-10T06:12:32.252Z,67.80
2022-08-10T06:12:56.747Z,67.90
2022-08-10T06:14:13.264Z,67.80
2022-08-10T06:15:00.098Z,67.90
2022-08-10T06:15:54.557Z,67.90
2022-08-10T06:16:54.628Z,67.80
2022-08-10T06:18:01.815Z,67.80
2022-08-10T06:18:54.790Z,67.80
2022-08-10T06:19:54.908Z,67.80
2022-08-10T06:20:54.942Z,67.80
2022-08-10T06:22:01.174Z,67.69
2022-08-10T06:22:55.098Z,67.69
2022-08-10T06:23:55.172Z,67.69
2022-08-10T06:25:26.892Z,67.69
2022-08-10T06:26:11.755Z,67.66
2022-08-10T06:26:55.448Z,67.66
2022-08-10T06:27:55.532Z,67.66
2022-08-10T06:29:02.794Z,67.66
2022-08-10T06:29:55.800Z,67.76
2022-08-10T06:30:55.770Z,67.66
2022-08-10T06:31:55.852Z,67.76
2022-08-10T06:32:55.950Z,67.76
2022-08-10T06:33:56.017Z,67.76
2022-08-10T06:34:56.125Z,67.76
2022-08-10T06:35:56.160Z,67.73
2022-08-10T06:36:56.244Z,67.63
2022-08-10T06:37:56.326Z,67.53
2022-08-10T06:39:06.989Z,67.53
2022-08-10T06:39:56.678Z,67.63
2022-08-10T06:40:56.593Z,67.53
2022-08-10T06:41:57.851Z,67.53
2022-08-10T06:42:56.870Z,67.63
2022-08-10T06:43:56.838Z,67.73
2022-08-10T06:44:56.939Z,67.73
2022-08-10T06:46:07.814Z,67.83
2022-08-10T06:46:57.103Z,67.83
2022-08-10T06:47:57.177Z,67.93
2022-08-10T06:48:57.265Z,67.93
2022-08-10T06:50:00.010Z,67.90
2022-08-10T06:50:59.042Z,67.93
2022-08-10T06:51:57.743Z,67.90
2022-08-10T06:52:57.632Z,67.90
2022-08-10T06:53:57.714Z,67.90
2022-08-10T06:54:57.837Z,67.90
2022-08-10T06:55:57.871Z,68.01
2022-08-10T06:57:17.295Z,68.01
2022-08-10T06:57:59.934Z,68.10
2022-08-10T06:58:58.134Z,68.10
2022-08-10T06:59:58.239Z,68.10
2022-08-10T07:00:58.399Z,68.21
2022-08-10T07:01:58.369Z,68.21
2022-08-10T07:02:58.459Z,68.21
2022-08-10T07:03:58.541Z,68.17
2022-08-10T07:04:58.631Z,68.17
2022-08-10T07:05:58.685Z,68.17
2022-08-10T07:06:58.781Z,68.17
2022-08-10T07:07:58.857Z,68.27
2022-08-10T07:08:58.956Z,68.37
2022-08-10T07:09:59.046Z,68.37
2022-08-10T07:10:59.131Z,68.37
2022-08-10T07:12:07.564Z,68.37
2022-08-10T07:12:59.305Z,68.37
2022-08-10T07:14:15.901Z,68.48
2022-08-10T07:14:59.490Z,68.57
2022-08-10T07:16:00.812Z,68.57
2022-08-10T07:16:59.620Z,68.48
2022-08-10T07:17:59.717Z,68.44
2022-08-10T07:18:59.796Z,68.54
2022-08-10T07:19:59.887Z,68.65
2022-08-10T07:20:59.971Z,68.65
2022-08-10T07:22:00.066Z,68.74
2022-08-10T07:23:01.306Z,68.65
2022-08-10T07:24:01.349Z,68.74
2022-08-10T07:25:00.320Z,68.74
2022-08-10T07:26:00.356Z,68.85
2022-08-10T07:27:00.443Z,68.74
2022-08-10T07:28:01.829Z,68.51
2022-08-10T07:29:00.641Z,68.51
2022-08-10T07:30:00.735Z,68.41
2022-08-10T07:31:00.777Z,68.41
2022-08-10T07:32:00.865Z,68.31
2022-08-10T07:33:00.945Z,68.21
2022-08-10T07:34:01.037Z,68.21
2022-08-10T07:35:01.107Z,68.21
2022-08-10T07:36:01.246Z,68.21
2022-08-10T07:37:01.271Z,68.21
2022-08-10T07:38:01.344Z,68.18
2022-08-10T07:39:01.429Z,68.18
2022-08-10T07:40:03.430Z,68.38
2022-08-10T07:41:01.598Z,68.38
2022-08-10T07:42:01.678Z,68.28
2022-08-10T07:43:01.781Z,67.97
2022-08-10T07:44:01.825Z,67.68
2022-08-10T07:45:01.926Z,67.27
2022-08-10T07:46:02.003Z,67.14
2022-08-10T07:47:02.062Z,67.14
2022-08-10T07:48:07.220Z,67.24
2022-08-10T07:49:02.226Z,67.44
2022-08-10T07:50:02.385Z,67.34
2022-08-10T07:51:02.386Z,67.14
2022-08-10T07:52:02.469Z,67.03
2022-08-10T07:53:02.539Z,67.03
2022-08-10T07:54:02.613Z,67.03
2022-08-10T07:55:02.757Z,66.80
2022-08-10T07:56:13.289Z,66.80
2022-08-10T07:57:02.822Z,66.71
2022-08-10T07:58:02.900Z,66.71
2022-08-10T07:59:02.986Z,66.60
2022-08-10T08:00:03.095Z,66.50
2022-08-10T08:01:03.175Z,66.40
2022-08-10T08:02:03.359Z,66.27
2022-08-10T08:03:03.337Z,66.27
2022-08-10T08:04:05.871Z,66.47
2022-08-10T08:05:03.530Z,66.37
2022-08-10T08:06:05.534Z,66.27
2022-08-10T08:07:03.655Z,66.37
2022-08-10T08:08:03.778Z,66.27
2022-08-10T08:09:03.892Z,65.56
2022-08-10T08:10:03.950Z,65.47
2022-08-10T08:11:03.996Z,65.73
2022-08-10T08:12:04.085Z,65.84
2022-08-10T08:13:04.179Z,65.53
2022-08-10T08:14:04.233Z,65.44
2022-08-10T08:16:14.468Z,65.13
2022-08-10T08:16:25.500Z,65.23
2022-08-10T08:17:04.495Z,65.53
2022-08-10T08:18:04.595Z,65.23
2022-08-10T08:20:04.787Z,65.30
2022-08-10T08:24:02.481Z,65.20
2022-08-10T08:24:24.044Z,65.20
2022-08-10T08:24:38.224Z,64.10
2022-08-10T08:25:22.667Z,63.39
2022-08-10T08:26:22.712Z,63.19
2022-08-10T08:27:22.800Z,62.89
2022-08-10T08:28:22.899Z,62.76
2022-08-10T08:29:22.990Z,62.66
2022-08-10T08:30:27.692Z,62.96
2022-08-10T08:31:23.159Z,63.06
2022-08-10T08:32:23.257Z,63.17
2022-08-10T08:33:42.233Z,63.06
2022-08-10T08:34:23.383Z,63.06
2022-08-10T08:35:23.467Z,63.17
2022-08-10T08:36:23.543Z,62.96
2022-08-10T08:38:32.337Z,62.76
2022-08-10T08:38:39.333Z,62.56
2022-08-10T08:39:23.839Z,62.56
2022-08-10T08:40:23.885Z,62.76
2022-08-10T08:41:23.924Z,63.17
2022-08-10T08:42:24.002Z,62.96
2022-08-10T08:43:26.373Z,62.96
2022-08-10T08:44:24.227Z,62.66
2022-08-10T08:45:24.267Z,62.36
2022-08-10T08:46:24.348Z,62.76
2022-08-10T08:48:03.377Z,62.56
2022-08-10T08:48:24.527Z,62.66
2022-08-10T08:50:04.850Z,62.93
2022-08-10T08:50:24.752Z,63.23
2022-08-10T08:52:09.227Z,63.03
2022-08-10T08:52:24.873Z,62.63
2022-08-10T08:53:24.996Z,62.23
2022-08-10T08:54:25.044Z,61.63
2022-08-10T08:56:04.266Z,61.52
2022-08-10T08:56:25.254Z,61.63
2022-08-10T08:57:49.975Z,62.13
2022-08-10T08:58:25.434Z,62.33
2022-08-10T08:59:25.488Z,62.53
2022-08-10T09:00:25.592Z,62.73
2022-08-10T09:01:40.444Z,62.63
2022-08-10T09:02:25.767Z,62.93
2022-08-10T09:03:28.294Z,63.13
2022-08-10T09:04:26.068Z,63.23
2022-08-10T09:12:08.192Z,63.43
2022-08-10T09:13:09.267Z,63.33
2022-08-10T09:14:09.312Z,63.43
2022-08-10T09:15:09.414Z,63.53
2022-08-10T09:16:09.515Z,63.64
2022-08-10T09:17:09.572Z,63.64
2022-08-10T09:18:09.681Z,63.33
2022-08-10T09:19:09.720Z,63.23
2022-08-10T09:20:09.877Z,63.20
2022-08-10T09:21:09.892Z,63.10
2022-08-10T09:22:17.421Z,63.31
2022-08-10T09:23:10.048Z,63.00
2022-08-10T09:24:10.135Z,62.90
2022-08-10T09:25:10.233Z,62.50
2022-08-10T09:26:10.282Z,62.50
2022-08-10T09:27:10.408Z,62.60
2022-08-10T09:28:10.440Z,62.50
2022-08-10T09:29:12.798Z,62.00
2022-08-10T09:30:10.618Z,62.00
2022-08-10T09:31:21.846Z,61.67
2022-08-10T09:36:15.122Z,61.87
2022-08-10T09:36:33.010Z,62.07
2022-08-10T09:36:39.165Z,61.47
2022-08-10T09:37:42.551Z,61.47
2022-08-10T09:38:38.981Z,62.37
2022-08-10T09:40:58.180Z,61.67
2022-08-10T09:41:13.124Z,61.77
2022-08-10T09:41:39.274Z,62.67
2022-08-10T09:42:39.308Z,62.47
2022-08-10T09:43:39.376Z,62.34
2022-08-10T09:44:58.385Z,62.34
2022-08-10T09:45:39.550Z,62.64
2022-08-10T09:46:39.651Z,63.45
2022-08-10T09:48:01.216Z,63.24
2022-08-10T09:48:39.785Z,63.84
2022-08-10T09:49:57.834Z,63.75
2022-08-10T09:51:20.982Z,63.34
2022-08-10T09:51:45.777Z,62.94
2022-08-10T09:52:40.182Z,63.04
2022-08-10T09:53:40.273Z,63.04
2022-08-10T09:54:40.278Z,63.21
2022-08-10T09:56:19.249Z,62.71
2022-08-10T09:56:40.473Z,62.51
2022-08-10T09:57:45.044Z,62.41
2022-08-10T09:58:40.616Z,62.31
2022-08-10T10:00:01.661Z,62.01
2022-08-10T10:00:40.778Z,61.71
2022-08-10T10:02:02.427Z,61.91
2022-08-10T10:02:40.920Z,61.81
2022-08-10T10:03:41.036Z,61.58
2022-08-10T10:04:41.068Z,60.98
2022-08-10T10:05:51.925Z,60.88
2022-08-10T10:06:41.255Z,60.88
2022-08-10T10:07:41.503Z,60.88
2022-08-10T10:30:36.713Z,63.64
2022-08-10T10:31:37.733Z,63.14
2022-08-10T10:32:37.775Z,62.74
2022-08-10T10:33:37.914Z,62.84
2022-08-10T10:34:37.973Z,62.54
2022-08-10T10:35:38.096Z,62.34
2022-08-10T10:36:38.131Z,62.71
2022-08-10T10:38:02.235Z,62.81
2022-08-10T10:38:38.325Z,63.01
2022-08-10T10:39:38.444Z,62.41
2022-08-10T10:40:38.460Z,62.48
2022-08-10T10:41:55.872Z,62.18
2022-08-10T10:42:46.030Z,61.88
2022-08-10T10:43:38.749Z,61.38
2022-08-10T10:44:42.157Z,61.48
2022-08-10T10:45:50.472Z,61.88
2022-08-10T10:46:38.956Z,62.28
2022-08-10T10:47:39.044Z,62.28
2022-08-10T10:48:39.169Z,62.05
2022-08-10T10:49:39.209Z,61.85
2022-08-10T10:50:39.290Z,61.65
2022-08-10T10:51:39.372Z,61.65
2022-08-10T10:52:39.455Z,61.75
2022-08-10T10:53:39.582Z,60.95
2022-08-10T10:54:39.598Z,61.05
2022-08-10T10:56:13.501Z,61.22
2022-08-10T10:56:39.786Z,61.42
2022-08-10T10:57:59.342Z,61.52
2022-08-10T10:58:39.949Z,62.02
2022-08-10T10:59:55.390Z,62.12
2022-08-10T11:00:40.113Z,62.02
2022-08-10T11:01:40.279Z,61.89
2022-08-10T11:02:40.276Z,61.19
2022-08-10T11:03:40.378Z,61.09
2022-08-10T11:04:40.428Z,61.19
2022-08-10T11:05:40.506Z,60.99
2022-08-10T11:06:40.975Z,60.69
2022-08-10T11:07:40.720Z,60.19
2022-08-10T11:08:41.038Z,60.19
2022-08-10T11:10:04.683Z,60.19
2022-08-10T11:10:46.913Z,60.49
2022-08-10T11:12:00.431Z,60.19
2022-08-10T11:12:45.114Z,59.89
2022-08-10T11:14:27.364Z,59.89
2022-08-10T11:14:41.226Z,59.99
2022-08-10T11:15:42.747Z,60.39
2022-08-10T11:16:41.376Z,60.89
2022-08-10T11:17:41.468Z,60.59
2022-08-10T11:18:41.566Z,60.46
2022-08-10T11:20:00.388Z,60.57
2022-08-10T11:20:41.724Z,60.57
2022-08-10T11:21:41.810Z,60.57
2022-08-10T11:22:41.884Z,60.57
2022-08-10T11:23:41.982Z,60.66
2022-08-10T11:24:48.663Z,59.56
2022-08-10T11:25:42.121Z,59.06
2022-08-10T11:26:42.219Z,59.06
2022-08-10T11:27:42.300Z,59.27
2022-08-10T11:28:42.408Z,59.34
2022-08-10T11:29:49.495Z,58.94
2022-08-10T11:30:42.536Z,59.23
2022-08-10T11:31:42.636Z,59.44
2022-08-10T11:32:42.719Z,59.74
2022-08-10T11:34:04.013Z,60.14
2022-08-10T11:35:11.626Z,59.74
2022-08-10T11:35:42.987Z,59.74
2022-08-10T11:36:43.066Z,58.81
2022-08-10T11:38:31.958Z,58.31
2022-08-10T11:39:12.601Z,58.11
2022-08-10T11:39:49.486Z,58.41
2022-08-10T11:40:43.394Z,57.91
2022-08-10T11:42:07.906Z,58.41
2022-08-10T11:42:50.083Z,58.61
2022-08-10T11:43:43.670Z,59.21
2022-08-10T11:44:43.791Z,59.21
2022-08-10T11:45:52.050Z,59.21
2022-08-10T11:46:43.892Z,58.41
2022-08-10T11:47:43.969Z,57.71
2022-08-10T11:48:53.357Z,57.21
2022-08-10T11:49:44.136Z,57.21
2022-08-10T11:50:44.215Z,57.39
2022-08-10T11:51:44.354Z,57.58
2022-08-10T11:52:44.397Z,56.88
2022-08-10T11:53:44.545Z,56.29
2022-08-10T11:54:44.549Z,55.99
2022-08-10T11:55:44.627Z,56.59
2022-08-10T11:56:44.705Z,56.48
2022-08-10T11:57:53.882Z,56.59
2022-08-10T11:58:44.910Z,56.68
2022-08-10T11:59:44.947Z,56.68
2022-08-10T12:00:44.990Z,56.09
2022-08-10T12:01:45.088Z,55.99
2022-08-10T12:02:45.253Z,55.99
2022-08-10T12:03:45.269Z,56.38
2022-08-10T12:04:45.349Z,56.29
2022-08-10T12:05:51.989Z,56.29
2022-08-10T12:06:55.555Z,56.59
2022-08-10T12:10:03.726Z,56.68
2022-08-10T12:10:16.488Z,56.79
2022-08-10T12:10:21.387Z,56.91
2022-08-10T12:11:22.503Z,56.98
2022-08-10T12:12:21.549Z,56.59
2022-08-10T12:13:21.642Z,56.29
2022-08-10T12:14:23.047Z,55.99
2022-08-10T12:15:21.831Z,56.18
2022-08-10T12:16:21.864Z,56.48
2022-08-10T12:17:21.977Z,56.88
2022-08-10T12:18:22.106Z,56.18
2022-08-10T12:19:22.113Z,56.29
2022-08-10T12:20:22.232Z,56.18
2022-08-10T12:21:22.465Z,56.09
2022-08-10T12:22:22.385Z,55.69
2022-08-10T12:23:22.448Z,55.79
2022-08-10T12:24:22.560Z,56.09
2022-08-10T12:25:55.724Z,55.99
2022-08-10T12:26:22.685Z,55.79
2022-08-10T12:46:20.217Z,58.69
2022-08-10T12:47:21.237Z,58.69
2022-08-10T12:48:21.342Z,58.99
2022-08-10T12:49:21.429Z,58.06
2022-08-10T12:50:33.437Z,57.76
2022-08-10T12:51:21.563Z,57.26
2022-08-10T12:52:21.657Z,57.14
2022-08-10T12:53:28.326Z,57.34
2022-08-10T12:54:32.005Z,57.44
2022-08-10T12:55:21.902Z,57.71
2022-08-10T12:56:22.013Z,58.01
2022-08-10T12:57:22.138Z,57.88
2022-08-10T12:58:59.557Z,57.58
2022-08-10T12:59:22.251Z,57.39
2022-08-10T13:00:22.343Z,57.39
2022-08-10T13:01:22.502Z,57.28
2022-08-10T13:02:22.538Z,57.35
2022-08-10T13:04:21.505Z,57.35
2022-08-10T13:04:28.458Z,56.96
2022-08-10T13:05:22.656Z,57.06
2022-08-10T13:06:22.747Z,57.56
2022-08-10T13:08:25.092Z,57.06
2022-08-10T13:08:31.952Z,56.56
2022-08-10T13:09:22.992Z,56.83
2022-08-10T13:10:23.053Z,56.43
2022-08-10T13:12:35.318Z,56.43
2022-08-10T13:12:44.143Z,55.63
2022-08-10T13:13:23.257Z,55.83
2022-08-10T13:14:24.295Z,55.63
2022-08-10T13:15:44.989Z,55.43
2022-08-10T13:16:23.525Z,55.43
2022-08-10T13:17:23.566Z,55.31
2022-08-10T13:18:23.645Z,55.31
2022-08-10T13:19:23.781Z,54.61
2022-08-10T13:20:23.831Z,54.81
2022-08-10T13:21:23.912Z,54.61
2022-08-10T13:22:23.996Z,54.41
2022-08-10T13:23:24.064Z,54.31
2022-08-10T13:24:24.205Z,54.81
2022-08-10T13:25:24.259Z,55.01
2022-08-10T13:26:24.348Z,55.11
2022-08-10T13:27:27.135Z,55.31
2022-08-10T13:28:37.337Z,55.31
2022-08-10T13:29:24.619Z,55.71
2022-08-10T13:30:37.535Z,55.08
2022-08-10T13:32:09.366Z,55.58
2022-08-10T13:32:24.860Z,55.78
2022-08-10T13:34:39.775Z,56.08
2022-08-10T13:34:48.612Z,56.18
2022-08-10T13:35:25.074Z,56.48
2022-08-10T13:36:25.159Z,56.77
2022-08-10T13:37:25.225Z,56.35
2022-08-10T13:38:25.363Z,55.65
2022-08-10T13:39:25.436Z,55.46
2022-08-10T13:40:25.578Z,55.26
2022-08-10T13:41:25.581Z,55.35
2022-08-10T13:42:31.985Z,55.46
2022-08-10T13:43:25.824Z,55.05
2022-08-10T13:44:25.804Z,54.56
2022-08-10T13:45:25.919Z,54.26
2022-08-10T13:46:25.950Z,54.26
2022-08-10T13:47:26.027Z,53.66
2022-08-10T13:48:26.080Z,53.56
2022-08-10T13:49:26.186Z,53.36
2022-08-10T13:50:33.750Z,52.27
2022-08-10T13:51:53.641Z,52.47
2022-08-10T13:52:26.528Z,52.57
2022-08-10T13:53:26.542Z,52.24
2022-08-10T13:54:26.612Z,52.24
2022-08-10T13:55:26.724Z,52.64
2022-08-10T13:56:26.764Z,52.34
2022-08-10T13:57:26.847Z,52.64
2022-08-10T13:58:26.943Z,52.54
2022-08-10T13:59:26.988Z,52.74
2022-08-10T14:00:41.781Z,52.34
2022-08-10T14:01:27.186Z,52.34
2022-08-10T14:02:27.363Z,51.84
2022-08-10T14:03:27.367Z,51.84
2022-08-10T14:04:27.437Z,52.04
2022-08-10T14:05:27.528Z,51.45
2022-08-10T14:06:29.345Z,51.65
2022-08-10T14:07:27.677Z,51.54
2022-08-10T14:08:27.787Z,51.75
2022-08-10T14:09:27.837Z,51.84
2022-08-10T14:11:09.661Z,52.24
2022-08-10T14:11:28.018Z,52.44
2022-08-10T14:12:32.186Z,52.54
2022-08-10T14:13:28.132Z,52.54
2022-08-10T14:14:28.213Z,52.34
2022-08-10T14:15:28.293Z,52.14
2022-08-10T14:16:28.421Z,52.24
2022-08-10T14:17:28.470Z,52.24
2022-08-10T14:18:28.648Z,52.34
2022-08-10T14:19:28.595Z,51.95
2022-08-10T14:20:28.666Z,51.84
2022-08-10T14:21:28.796Z,52.04
2022-08-10T14:22:32.475Z,52.04
2022-08-10T14:23:28.945Z,52.24
2022-08-10T14:24:28.974Z,52.14
2022-08-10T14:25:29.053Z,52.34
2022-08-10T14:26:29.149Z,52.64
2022-08-10T14:28:02.216Z,52.64
2022-08-10T14:28:29.307Z,52.74
2022-08-10T14:29:29.383Z,52.51
2022-08-10T14:30:30.809Z,52.51
2022-08-10T14:31:29.572Z,52.42
2022-08-10T14:32:29.637Z,51.92
2022-08-10T14:33:29.679Z,52.02
2022-08-10T14:36:05.005Z,51.03
2022-08-10T14:36:26.290Z,50.52
2022-08-10T14:36:31.237Z,50.63
2022-08-10T14:37:31.284Z,50.43
2022-08-10T14:38:31.353Z,50.52
2022-08-10T14:39:31.516Z,50.63
2022-08-10T14:40:31.528Z,50.82
2022-08-10T14:42:01.354Z,51.03
2022-08-10T14:42:31.704Z,51.62
2022-08-10T14:43:31.847Z,51.42
2022-08-10T14:44:31.857Z,51.52
2022-08-10T14:45:31.917Z,51.62
2022-08-10T14:46:32.067Z,50.93
2022-08-10T14:47:56.031Z,50.63
2022-08-10T14:48:33.232Z,50.73
2022-08-10T14:49:57.235Z,50.93
2022-08-10T14:50:33.551Z,50.43
2022-08-10T14:51:44.455Z,50.52
2022-08-10T14:52:32.509Z,50.63
2022-08-10T14:53:34.409Z,50.93
2022-08-10T14:54:32.608Z,50.93
2022-08-10T14:55:32.692Z,50.73
2022-08-10T14:56:32.793Z,50.43
2022-08-10T14:58:19.357Z,49.93
2022-08-10T14:58:32.955Z,50.13
2022-08-10T15:00:22.725Z,50.52
2022-08-10T15:00:40.470Z,50.63
2022-08-10T15:02:38.984Z,50.33
2022-08-10T15:02:58.208Z,49.83
2022-08-10T15:04:01.890Z,50.03
2022-08-10T15:04:33.398Z,49.73
2022-08-10T15:05:39.739Z,49.63
2022-08-10T15:06:33.529Z,48.54
2022-08-10T15:07:33.714Z,48.83
2022-08-10T15:08:37.144Z,48.64
2022-08-10T15:10:00.830Z,49.04
2022-08-10T15:10:33.822Z,49.04
2022-08-10T15:12:13.311Z,49.23
2022-08-10T15:12:34.003Z,48.94
2022-08-10T15:13:35.286Z,49.04
2022-08-10T15:14:43.378Z,48.34
2022-08-10T15:15:49.969Z,48.74
2022-08-10T15:16:34.396Z,48.54
2022-08-10T15:17:35.232Z,48.34
2022-08-10T15:18:34.533Z,48.14
2022-08-10T15:20:03.815Z,48.24
2022-08-10T15:20:34.698Z,48.54
2022-08-10T15:21:42.885Z,48.54
2022-08-10T15:22:38.003Z,49.04
2022-08-10T15:24:05.381Z,49.23
2022-08-10T15:24:35.030Z,49.33
2022-08-10T15:25:36.487Z,48.94
2022-08-10T15:26:35.215Z,48.83
2022-08-10T15:27:54.878Z,49.04
2022-08-10T15:29:08.534Z,49.13
2022-08-10T15:29:35.480Z,49.13
2022-08-10T15:30:35.542Z,49.43
2022-08-10T15:31:35.649Z,49.53
2022-08-10T15:32:35.676Z,49.53
2022-08-10T15:33:57.468Z,48.83
2022-08-10T15:34:35.836Z,48.64
2022-08-10T15:35:36.380Z,49.04
2022-08-10T15:36:36.055Z,49.23
2022-08-10T15:37:41.055Z,49.13
2022-08-10T15:38:36.243Z,49.33
2022-08-10T15:40:21.508Z,49.33
2022-08-10T15:40:41.918Z,49.53
2022-08-10T15:41:57.638Z,49.33
2022-08-10T15:42:36.634Z,49.43
2022-08-10T15:43:38.813Z,49.73
2022-08-10T15:44:36.715Z,49.73
2022-08-10T15:45:36.770Z,49.93
2022-08-10T15:46:36.866Z,49.83
2022-08-10T15:47:45.210Z,49.83
2022-08-10T15:48:37.041Z,49.73
2022-08-10T15:49:37.088Z,49.93
2022-08-10T15:50:40.053Z,49.13
2022-08-10T15:51:52.902Z,48.83
2022-08-10T15:52:39.423Z,49.04
2022-08-10T15:53:49.738Z,49.06
2022-08-10T15:54:37.507Z,49.16
2022-08-10T15:55:42.338Z,49.06
2022-08-10T15:56:37.684Z,49.16
2022-08-10T15:57:38.050Z,49.16
2022-08-10T15:58:40.470Z,49.16
2022-08-10T15:59:37.925Z,49.26
2022-08-10T16:00:38.033Z,49.26
2022-08-10T16:02:15.006Z,49.46
2022-08-10T16:02:38.224Z,49.55
2022-08-10T16:03:38.257Z,49.16
2022-08-10T16:04:38.332Z,49.36
2022-08-10T16:05:40.852Z,49.46
2022-08-10T16:06:38.530Z,49.85
2022-08-10T16:07:45.594Z,49.66
2022-08-10T16:08:56.229Z,49.66
2022-08-10T16:10:24.902Z,49.55
2022-08-10T16:10:39.093Z,48.66
2022-08-10T16:11:38.930Z,48.66
2022-08-10T16:12:38.972Z,48.46
2022-08-10T16:14:00.707Z,48.66
2022-08-10T16:14:39.145Z,48.96
2022-08-10T16:15:39.203Z,49.16
2022-08-10T16:16:39.344Z,49.66
2022-08-10T16:17:54.889Z,49.46
2022-08-10T16:18:39.489Z,49.66
2022-08-10T16:19:39.615Z,49.66
2022-08-10T16:20:53.665Z,49.55
2022-08-10T16:21:39.780Z,49.55
2022-08-10T16:22:39.845Z,49.85
2022-08-10T16:23:39.924Z,49.95
2022-08-10T16:24:39.991Z,49.85
2022-08-10T16:25:47.870Z,49.95
2022-08-10T16:26:40.187Z,50.25
2022-08-10T16:27:40.259Z,50.35
2022-08-10T16:28:40.307Z,50.15
2022-08-10T16:29:56.111Z,49.88
2022-08-10T16:30:40.475Z,49.88
2022-08-10T16:31:40.528Z,49.88
2022-08-10T16:32:40.690Z,49.88
2022-08-10T16:33:54.264Z,49.88
2022-08-10T16:34:40.766Z,49.88
2022-08-10T16:35:40.847Z,49.48
2022-08-10T16:36:40.932Z,49.38
2022-08-10T16:37:57.425Z,49.48
2022-08-10T16:38:41.103Z,49.28
2022-08-10T16:39:58.008Z,48.38
2022-08-10T16:40:41.312Z,48.28
2022-08-10T16:42:05.314Z,48.49
2022-08-10T16:42:44.855Z,48.58
2022-08-10T16:43:41.478Z,48.79
2022-08-10T16:44:41.572Z,48.28
2022-08-10T16:45:41.644Z,48.38
2022-08-10T16:46:41.764Z,48.28
2022-08-10T16:47:41.815Z,48.28
2022-08-10T16:48:49.173Z,48.28
2022-08-10T16:49:41.981Z,48.38
2022-08-10T16:50:42.062Z,48.28
2022-08-10T16:51:42.134Z,48.38
2022-08-10T16:52:42.234Z,48.58
2022-08-10T16:53:42.285Z,48.49
2022-08-10T16:54:42.351Z,48.28
2022-08-10T16:55:48.457Z,48.38
2022-08-10T16:56:49.232Z,48.28
2022-08-10T16:57:42.622Z,48.19
2022-08-10T16:58:42.656Z,47.89
2022-08-10T16:59:42.759Z,48.08
2022-08-10T17:00:42.867Z,48.19
2022-08-10T17:01:42.945Z,48.28
2022-08-10T17:02:42.956Z,47.89
2022-08-10T17:04:06.253Z,47.79
2022-08-10T17:04:43.121Z,47.69
2022-08-10T17:06:01.600Z,47.79
2022-08-10T17:06:43.345Z,47.99
2022-08-10T17:07:43.518Z,48.19
2022-08-10T17:08:48.705Z,48.08
2022-08-10T17:09:43.554Z,47.99
2022-08-10T17:10:43.633Z,47.99
2022-08-10T17:11:43.716Z,47.79
2022-08-10T17:12:43.828Z,47.79
2022-08-10T17:13:43.879Z,47.89
2022-08-10T17:14:44.108Z,47.89
2022-08-10T17:15:44.068Z,47.69
2022-08-10T17:16:44.152Z,47.69
2022-08-10T17:17:44.264Z,47.59
2022-08-10T17:18:46.684Z,47.59
2022-08-10T17:19:44.400Z,47.59
2022-08-10T17:20:44.469Z,47.59
2022-08-10T17:21:51.925Z,47.69
2022-08-10T17:22:44.657Z,47.89
2022-08-10T17:23:44.699Z,47.59
2022-08-10T17:24:44.789Z,47.19
2022-08-10T17:25:48.370Z,47.19
2022-08-10T17:26:44.960Z,47.09
2022-08-10T17:28:21.160Z,46.99
2022-08-10T17:28:45.130Z,46.69
2022-08-10T17:29:57.216Z,46.99
2022-08-10T17:30:58.068Z,47.19
2022-08-10T17:31:53.881Z,47.29
2022-08-10T17:32:45.457Z,47.39
2022-08-10T17:33:45.477Z,47.39
2022-08-10T17:34:45.534Z,47.49
2022-08-10T17:35:45.631Z,47.39
2022-08-10T17:36:45.717Z,47.49
2022-08-10T17:37:45.821Z,47.59
2022-08-10T17:38:45.860Z,47.69
2022-08-10T17:39:46.066Z,47.89
2022-08-10T17:40:46.083Z,47.79
2022-08-10T17:41:46.118Z,47.39
2022-08-10T17:42:46.228Z,47.39
2022-08-10T17:44:01.607Z,47.49
2022-08-10T17:44:46.386Z,47.49
2022-08-10T17:45:47.856Z,47.69
2022-08-10T17:46:46.573Z,47.89
2022-08-10T17:47:46.706Z,48.01
2022-08-10T17:48:46.770Z,48.01
2022-08-10T17:49:46.866Z,48.11
2022-08-10T17:50:46.935Z,48.41
2022-08-10T17:51:47.020Z,48.31
2022-08-10T17:52:47.129Z,48.41
2022-08-10T17:53:47.162Z,48.21
2022-08-10T17:54:47.243Z,48.21
2022-08-10T17:55:47.321Z,48.31
2022-08-10T17:56:47.391Z,48.41
2022-08-10T17:57:47.480Z,48.50
2022-08-10T17:58:47.575Z,48.41
2022-08-10T17:59:47.633Z,48.50